aviador You're here:

KJMR Decoded Metar

MORA in MN, USA
Report Time2017-06-24 17:02:00
UTC Time2017-06-24 17:09:02
Flight Rules vfr VFR
Wind290° at 07 kt
W.Decomp.*RWY 35: 3.2 kt HW 6.2 kt LCW
W.Rank290° ranks 8
Current wind is below 290° avg. (7.2)
Visibility9999 m
Phenomena:N/A
Clouds:Scattered 050 Hf
Scattered 065 Hf
Broken 075 Hf
Expected CloudBase > 4,000 ft AGL from Temp-Dew spread
Ceiling7,500 ft
Temp14°C (ISA +1)
Dew Point04°C (51% RH)
AAT10.2°C
QNH1016 hPa
Density Alt1,148 ft
Elevation1,014 ft
Report Wrong Elevation
Raw Report
KJMR 241702Z AUTO 29007KT 10SM SCT050 SCT065 BKN075 14/04 A3000
RMK AO2=

Extra information for KJMR:More info

Metar Taf Metar & Taf Last 4 Metars F.Rules Stats Wind Profile Meteogram Temp Stats Airport Information Weather charts Add Link Nearby VenuesMetar ALERT Operation Metar Decoded Social comments

AIRNAV info for KJMR